sensor_id;sensor_type;location;lat;lon;timestamp;temperature;humidity
19680;DHT22;9989;48.962;9.182;2024-03-23T00:55:42;10.30;99.90
19680;DHT22;9989;48.962;9.182;2024-03-23T00:58:08;10.30;99.90
19680;DHT22;9989;48.962;9.182;2024-03-23T01:00:33;10.30;99.90
19680;DHT22;9989;48.962;9.182;2024-03-23T01:02:59;10.30;99.90
19680;DHT22;9989;48.962;9.182;2024-03-23T01:05:24;10.30;99.90
19680;DHT22;9989;48.962;9.182;2024-03-23T01:07:50;10.30;99.90
19680;DHT22;9989;48.962;9.182;2024-03-23T01:10:16;10.40;99.90
19680;DHT22;9989;48.962;9.182;2024-03-23T01:12:41;10.40;99.90
19680;DHT22;9989;48.962;9.182;2024-03-23T01:15:07;10.40;99.90
19680;DHT22;9989;48.962;9.182;2024-03-23T01:17:32;10.40;99.90
19680;DHT22;9989;48.962;9.182;2024-03-23T01:19:58;10.40;99.90
19680;DHT22;9989;48.962;9.182;2024-03-23T01:22:24;10.50;99.90
19680;DHT22;9989;48.962;9.182;2024-03-23T01:24:49;10.50;99.90
19680;DHT22;9989;48.962;9.182;2024-03-23T01:27:15;10.50;99.90
19680;DHT22;9989;48.962;9.182;2024-03-23T01:29:40;10.50;99.90
19680;DHT22;9989;48.962;9.182;2024-03-23T01:32:06;10.50;99.90
19680;DHT22;9989;48.962;9.182;2024-03-23T01:34:32;10.50;99.90
19680;DHT22;9989;48.962;9.182;2024-03-23T01:36:58;10.60;99.90
19680;DHT22;9989;48.962;9.182;2024-03-23T01:39:24;10.60;99.90
19680;DHT22;9989;48.962;9.182;2024-03-23T01:41:49;10.60;99.90
19680;DHT22;9989;48.962;9.182;2024-03-23T01:44:15;10.60;99.90
19680;DHT22;9989;48.962;9.182;2024-03-23T01:46:41;10.60;99.90
19680;DHT22;9989;48.962;9.182;2024-03-23T01:49:08;10.60;99.90
19680;DHT22;9989;48.962;9.182;2024-03-23T01:51:35;10.60;99.90
19680;DHT22;9989;48.962;9.182;2024-03-23T01:54:04;10.60;99.90
19680;DHT22;9989;48.962;9.182;2024-03-23T01:56:34;10.60;99.90
19680;DHT22;9989;48.962;9.182;2024-03-23T01:59:04;10.60;99.90
19680;DHT22;9989;48.962;9.182;2024-03-23T02:01:31;10.60;99.90
19680;DHT22;9989;48.962;9.182;2024-03-23T02:03:56;10.60;99.90
19680;DHT22;9989;48.962;9.182;2024-03-23T02:06:24;10.50;99.90
19680;DHT22;9989;48.962;9.182;2024-03-23T02:08:49;10.50;99.90
19680;DHT22;9989;48.962;9.182;2024-03-23T02:11:15;10.50;99.90
19680;DHT22;9989;48.962;9.182;2024-03-23T02:13:41;10.40;99.90
19680;DHT22;9989;48.962;9.182;2024-03-23T02:16:06;10.40;99.90
19680;DHT22;9989;48.962;9.182;2024-03-23T02:18:33;10.40;99.90
19680;DHT22;9989;48.962;9.182;2024-03-23T02:20:58;10.30;99.90
19680;DHT22;9989;48.962;9.182;2024-03-23T02:23:24;10.30;99.90
19680;DHT22;9989;48.962;9.182;2024-03-23T02:25:52;10.20;99.90
19680;DHT22;9989;48.962;9.182;2024-03-23T02:28:21;10.20;99.90
19680;DHT22;9989;48.962;9.182;2024-03-23T02:30:50;10.10;99.90
19680;DHT22;9989;48.962;9.182;2024-03-23T02:33:16;10.10;99.90
19680;DHT22;9989;48.962;9.182;2024-03-23T02:35:43;10.10;99.90
19680;DHT22;9989;48.962;9.182;2024-03-23T02:38:08;10.10;99.90
19680;DHT22;9989;48.962;9.182;2024-03-23T02:40:34;10.10;99.90
19680;DHT22;9989;48.962;9.182;2024-03-23T02:43:00;10.10;99.90
19680;DHT22;9989;48.962;9.182;2024-03-23T02:45:25;10.00;99.90
19680;DHT22;9989;48.962;9.182;2024-03-23T02:47:51;10.00;99.90
19680;DHT22;9989;48.962;9.182;2024-03-23T02:50:18;10.00;99.90
19680;DHT22;9989;48.962;9.182;2024-03-23T02:52:44;10.00;99.90
19680;DHT22;9989;48.962;9.182;2024-03-23T02:55:10;10.00;99.90
19680;DHT22;9989;48.962;9.182;2024-03-23T02:57:35;10.00;99.90
19680;DHT22;9989;48.962;9.182;2024-03-23T03:00:01;9.90;99.90
19680;DHT22;9989;48.962;9.182;2024-03-23T03:02:26;9.90;99.90
19680;DHT22;9989;48.962;9.182;2024-03-23T03:04:52;9.90;99.90
19680;DHT22;9989;48.962;9.182;2024-03-23T03:07:17;9.90;99.90
19680;DHT22;9989;48.962;9.182;2024-03-23T03:09:43;9.90;99.90
19680;DHT22;9989;48.962;9.182;2024-03-23T03:12:08;9.80;99.90
19680;DHT22;9989;48.962;9.182;2024-03-23T03:14:34;9.80;99.90
19680;DHT22;9989;48.962;9.182;2024-03-23T03:17:00;9.80;99.90
19680;DHT22;9989;48.962;9.182;2024-03-23T03:19:26;9.80;99.90
19680;DHT22;9989;48.962;9.182;2024-03-23T03:21:52;9.80;99.90
19680;DHT22;9989;48.962;9.182;2024-03-23T03:24:18;9.80;99.90
19680;DHT22;9989;48.962;9.182;2024-03-23T03:26:44;9.80;99.90
19680;DHT22;9989;48.962;9.182;2024-03-23T03:29:09;9.80;99.90
19680;DHT22;9989;48.962;9.182;2024-03-23T03:31:35;9.80;99.90
19680;DHT22;9989;48.962;9.182;2024-03-23T03:34:01;9.80;99.90
19680;DHT22;9989;48.962;9.182;2024-03-23T03:36:27;9.80;99.90
19680;DHT22;9989;48.962;9.182;2024-03-23T03:38:53;9.80;99.90
19680;DHT22;9989;48.962;9.182;2024-03-23T03:41:19;9.80;99.90
19680;DHT22;9989;48.962;9.182;2024-03-23T03:43:44;9.90;99.90
19680;DHT22;9989;48.962;9.182;2024-03-23T03:46:10;9.90;99.90
19680;DHT22;9989;48.962;9.182;2024-03-23T03:48:36;9.90;99.90
19680;DHT22;9989;48.962;9.182;2024-03-23T03:51:02;9.90;99.90
19680;DHT22;9989;48.962;9.182;2024-03-23T03:53:28;9.90;99.90
19680;DHT22;9989;48.962;9.182;2024-03-23T03:55:53;10.00;99.90
19680;DHT22;9989;48.962;9.182;2024-03-23T03:58:19;10.00;99.90
19680;DHT22;9989;48.962;9.182;2024-03-23T04:00:44;10.00;99.90
19680;DHT22;9989;48.962;9.182;2024-03-23T04:03:10;10.00;99.90
19680;DHT22;9989;48.962;9.182;2024-03-23T04:05:36;10.00;99.90
19680;DHT22;9989;48.962;9.182;2024-03-23T04:08:01;10.00;99.90
19680;DHT22;9989;48.962;9.182;2024-03-23T04:10:27;10.00;99.90
19680;DHT22;9989;48.962;9.182;2024-03-23T04:12:52;10.00;99.90
19680;DHT22;9989;48.962;9.182;2024-03-23T04:15:19;10.10;99.90
19680;DHT22;9989;48.962;9.182;2024-03-23T04:17:45;10.10;99.90
19680;DHT22;9989;48.962;9.182;2024-03-23T04:20:10;10.10;99.90
19680;DHT22;9989;48.962;9.182;2024-03-23T04:22:37;10.10;99.90
19680;DHT22;9989;48.962;9.182;2024-03-23T04:25:03;10.20;99.90
19680;DHT22;9989;48.962;9.182;2024-03-23T04:27:35;10.20;99.90
19680;DHT22;9989;48.962;9.182;2024-03-23T04:30:01;10.30;99.90
19680;DHT22;9989;48.962;9.182;2024-03-23T04:32:28;10.30;99.90
19680;DHT22;9989;48.962;9.182;2024-03-23T04:34:54;10.40;99.90
19680;DHT22;9989;48.962;9.182;2024-03-23T04:37:20;10.50;99.90
19680;DHT22;9989;48.962;9.182;2024-03-23T04:39:46;10.70;99.90
19680;DHT22;9989;48.962;9.182;2024-03-23T04:42:14;10.70;99.90
19680;DHT22;9989;48.962;9.182;2024-03-23T04:44:40;10.80;99.90
19680;DHT22;9989;48.962;9.182;2024-03-23T04:47:05;10.90;99.90
19680;DHT22;9989;48.962;9.182;2024-03-23T04:49:31;10.90;99.90
19680;DHT22;9989;48.962;9.182;2024-03-23T04:51:57;11.00;99.90
19680;DHT22;9989;48.962;9.182;2024-03-23T04:54:22;11.00;99.90
19680;DHT22;9989;48.962;9.182;2024-03-23T04:56:48;11.10;99.90
19680;DHT22;9989;48.962;9.182;2024-03-23T04:59:13;11.10;99.90
19680;DHT22;9989;48.962;9.182;2024-03-23T05:01:39;11.10;99.90
19680;DHT22;9989;48.962;9.182;2024-03-23T05:04:07;11.20;99.90
19680;DHT22;9989;48.962;9.182;2024-03-23T05:06:33;11.20;99.90
19680;DHT22;9989;48.962;9.182;2024-03-23T05:08:59;11.30;99.90
19680;DHT22;9989;48.962;9.182;2024-03-23T05:11:25;11.40;99.90
19680;DHT22;9989;48.962;9.182;2024-03-23T05:13:50;11.40;99.90
19680;DHT22;9989;48.962;9.182;2024-03-23T05:16:16;11.40;99.90
19680;DHT22;9989;48.962;9.182;2024-03-23T05:18:42;11.40;99.90
19680;DHT22;9989;48.962;9.182;2024-03-23T05:21:07;11.40;99.90
19680;DHT22;9989;48.962;9.182;2024-03-23T05:23:33;11.40;99.90
19680;DHT22;9989;48.962;9.182;2024-03-23T05:25:58;11.50;99.90
19680;DHT22;9989;48.962;9.182;2024-03-23T05:28:24;11.50;99.90
19680;DHT22;9989;48.962;9.182;2024-03-23T05:30:53;11.50;99.90
19680;DHT22;9989;48.962;9.182;2024-03-23T05:33:20;11.50;99.90
19680;DHT22;9989;48.962;9.182;2024-03-23T05:35:46;11.50;99.90
19680;DHT22;9989;48.962;9.182;2024-03-23T05:38:13;11.50;99.90
19680;DHT22;9989;48.962;9.182;2024-03-23T05:40:39;11.50;99.90
19680;DHT22;9989;48.962;9.182;2024-03-23T05:43:06;11.50;99.90
19680;DHT22;9989;48.962;9.182;2024-03-23T05:45:32;11.50;99.90
19680;DHT22;9989;48.962;9.182;2024-03-23T05:47:57;11.50;99.90
19680;DHT22;9989;48.962;9.182;2024-03-23T05:50:23;11.40;99.90
19680;DHT22;9989;48.962;9.182;2024-03-23T05:52:49;11.30;99.90
19680;DHT22;9989;48.962;9.182;2024-03-23T05:55:15;11.30;99.90
19680;DHT22;9989;48.962;9.182;2024-03-23T05:57:41;11.20;99.90
19680;DHT22;9989;48.962;9.182;2024-03-23T06:00:07;11.10;99.90
19680;DHT22;9989;48.962;9.182;2024-03-23T06:02:42;11.10;99.90
19680;DHT22;9989;48.962;9.182;2024-03-23T06:05:10;11.00;99.90
19680;DHT22;9989;48.962;9.182;2024-03-23T06:07:36;11.00;99.90
19680;DHT22;9989;48.962;9.182;2024-03-23T06:10:02;11.00;99.90
19680;DHT22;9989;48.962;9.182;2024-03-23T06:12:27;11.10;99.90
19680;DHT22;9989;48.962;9.182;2024-03-23T06:14:53;11.10;99.90
19680;DHT22;9989;48.962;9.182;2024-03-23T06:17:18;11.00;99.90
19680;DHT22;9989;48.962;9.182;2024-03-23T06:19:44;11.00;99.90
19680;DHT22;9989;48.962;9.182;2024-03-23T06:22:10;10.90;99.90
19680;DHT22;9989;48.962;9.182;2024-03-23T06:24:35;10.80;99.90
19680;DHT22;9989;48.962;9.182;2024-03-23T06:27:01;10.80;99.90
19680;DHT22;9989;48.962;9.182;2024-03-23T06:29:26;10.80;99.90
19680;DHT22;9989;48.962;9.182;2024-03-23T06:31:54;10.80;99.90
19680;DHT22;9989;48.962;9.182;2024-03-23T06:34:20;10.80;99.90
19680;DHT22;9989;48.962;9.182;2024-03-23T06:36:47;10.80;99.90
19680;DHT22;9989;48.962;9.182;2024-03-23T06:39:12;10.80;99.90
19680;DHT22;9989;48.962;9.182;2024-03-23T06:41:41;10.80;99.90
19680;DHT22;9989;48.962;9.182;2024-03-23T06:44:07;10.80;99.90
19680;DHT22;9989;48.962;9.182;2024-03-23T06:46:32;10.80;99.90
19680;DHT22;9989;48.962;9.182;2024-03-23T06:48:58;10.70;99.90
19680;DHT22;9989;48.962;9.182;2024-03-23T06:51:23;10.70;99.90
19680;DHT22;9989;48.962;9.182;2024-03-23T06:53:49;10.70;99.90
19680;DHT22;9989;48.962;9.182;2024-03-23T06:56:15;10.70;99.90
19680;DHT22;9989;48.962;9.182;2024-03-23T06:58:41;10.70;99.90
19680;DHT22;9989;48.962;9.182;2024-03-23T07:01:06;10.70;99.90
19680;DHT22;9989;48.962;9.182;2024-03-23T07:03:32;10.70;99.90
19680;DHT22;9989;48.962;9.182;2024-03-23T07:05:58;10.70;99.90
19680;DHT22;9989;48.962;9.182;2024-03-23T07:08:24;10.80;99.90
19680;DHT22;9989;48.962;9.182;2024-03-23T07:10:49;10.80;99.90
19680;DHT22;9989;48.962;9.182;2024-03-23T07:13:15;10.90;99.90
19680;DHT22;9989;48.962;9.182;2024-03-23T07:15:42;10.90;99.90
19680;DHT22;9989;48.962;9.182;2024-03-23T07:18:08;10.90;99.90
19680;DHT22;9989;48.962;9.182;2024-03-23T07:20:33;10.80;99.90
19680;DHT22;9989;48.962;9.182;2024-03-23T07:22:59;10.80;99.90
19680;DHT22;9989;48.962;9.182;2024-03-23T07:25:25;10.80;99.90
19680;DHT22;9989;48.962;9.182;2024-03-23T07:27:53;10.80;99.90
19680;DHT22;9989;48.962;9.182;2024-03-23T07:30:18;10.70;99.90
19680;DHT22;9989;48.962;9.182;2024-03-23T07:32:44;10.60;99.90
19680;DHT22;9989;48.962;9.182;2024-03-23T07:35:10;10.60;99.90
19680;DHT22;9989;48.962;9.182;2024-03-23T07:37:36;10.60;99.90
19680;DHT22;9989;48.962;9.182;2024-03-23T07:40:01;10.60;99.90
19680;DHT22;9989;48.962;9.182;2024-03-23T07:42:28;10.50;99.90
19680;DHT22;9989;48.962;9.182;2024-03-23T07:44:54;10.50;99.90
19680;DHT22;9989;48.962;9.182;2024-03-23T07:47:22;10.50;99.90
19680;DHT22;9989;48.962;9.182;2024-03-23T07:49:47;10.50;99.90
19680;DHT22;9989;48.962;9.182;2024-03-23T07:52:13;10.50;99.90
19680;DHT22;9989;48.962;9.182;2024-03-23T07:54:39;10.50;99.90
19680;DHT22;9989;48.962;9.182;2024-03-23T07:57:05;10.60;99.90
19680;DHT22;9989;48.962;9.182;2024-03-23T07:59:32;10.60;99.90
19680;DHT22;9989;48.962;9.182;2024-03-23T08:01:59;10.50;99.90
19680;DHT22;9989;48.962;9.182;2024-03-23T08:04:25;10.40;99.90
19680;DHT22;9989;48.962;9.182;2024-03-23T08:06:50;10.30;99.90
19680;DHT22;9989;48.962;9.182;2024-03-23T08:09:16;10.30;99.90
19680;DHT22;9989;48.962;9.182;2024-03-23T08:11:42;10.20;99.90
19680;DHT22;9989;48.962;9.182;2024-03-23T08:14:10;10.20;99.90
19680;DHT22;9989;48.962;9.182;2024-03-23T08:16:36;10.00;99.90
19680;DHT22;9989;48.962;9.182;2024-03-23T08:19:01;9.90;99.90
19680;DHT22;9989;48.962;9.182;2024-03-23T08:21:29;9.90;99.90
19680;DHT22;9989;48.962;9.182;2024-03-23T08:23:54;9.90;99.90
19680;DHT22;9989;48.962;9.182;2024-03-23T08:26:20;10.00;99.90
19680;DHT22;9989;48.962;9.182;2024-03-23T08:28:46;10.00;99.90
19680;DHT22;9989;48.962;9.182;2024-03-23T08:31:12;10.10;99.90
19680;DHT22;9989;48.962;9.182;2024-03-23T08:33:38;10.30;99.90
19680;DHT22;9989;48.962;9.182;2024-03-23T08:36:06;10.50;99.90
19680;DHT22;9989;48.962;9.182;2024-03-23T08:38:32;10.80;99.90
19680;DHT22;9989;48.962;9.182;2024-03-23T08:41:02;11.10;99.90
19680;DHT22;9989;48.962;9.182;2024-03-23T08:43:31;11.40;99.90
19680;DHT22;9989;48.962;9.182;2024-03-23T08:46:11;11.60;99.90
19680;DHT22;9989;48.962;9.182;2024-03-23T08:48:42;11.80;99.90
19680;DHT22;9989;48.962;9.182;2024-03-23T08:51:12;12.10;99.90
19680;DHT22;9989;48.962;9.182;2024-03-23T08:53:38;12.30;99.90
19680;DHT22;9989;48.962;9.182;2024-03-23T08:56:05;12.60;99.90
19680;DHT22;9989;48.962;9.182;2024-03-23T08:58:35;12.70;99.90
19680;DHT22;9989;48.962;9.182;2024-03-23T09:03:35;12.90;99.90
19680;DHT22;9989;48.962;9.182;2024-03-23T09:06:06;13.10;99.90
19680;DHT22;9989;48.962;9.182;2024-03-23T09:08:31;13.30;99.90
19680;DHT22;9989;48.962;9.182;2024-03-23T09:10:57;13.60;99.90
19680;DHT22;9989;48.962;9.182;2024-03-23T09:13:22;13.50;99.90
19680;DHT22;9989;48.962;9.182;2024-03-23T09:15:49;13.40;99.90
19680;DHT22;9989;48.962;9.182;2024-03-23T09:18:16;13.20;99.90
19680;DHT22;9989;48.962;9.182;2024-03-23T09:20:42;13.00;99.90
19680;DHT22;9989;48.962;9.182;2024-03-23T09:23:07;12.80;99.90
19680;DHT22;9989;48.962;9.182;2024-03-23T09:25:39;12.60;99.90
19680;DHT22;9989;48.962;9.182;2024-03-23T09:28:06;12.40;99.90
19680;DHT22;9989;48.962;9.182;2024-03-23T09:30:32;12.20;99.90
19680;DHT22;9989;48.962;9.182;2024-03-23T09:32:59;12.00;99.90
19680;DHT22;9989;48.962;9.182;2024-03-23T09:35:24;11.90;99.90
19680;DHT22;9989;48.962;9.182;2024-03-23T09:37:50;11.80;99.90
19680;DHT22;9989;48.962;9.182;2024-03-23T09:40:15;11.80;99.90
19680;DHT22;9989;48.962;9.182;2024-03-23T09:42:41;11.80;99.90
19680;DHT22;9989;48.962;9.182;2024-03-23T09:45:28;11.70;99.90
19680;DHT22;9989;48.962;9.182;2024-03-23T09:47:57;11.60;99.90
19680;DHT22;9989;48.962;9.182;2024-03-23T09:50:23;11.50;99.90
19680;DHT22;9989;48.962;9.182;2024-03-23T09:52:49;11.60;99.90
19680;DHT22;9989;48.962;9.182;2024-03-23T09:55:15;11.70;99.90
19680;DHT22;9989;48.962;9.182;2024-03-23T09:57:41;11.90;99.90
19680;DHT22;9989;48.962;9.182;2024-03-23T10:00:07;12.20;99.90
19680;DHT22;9989;48.962;9.182;2024-03-23T10:02:34;12.70;99.90
19680;DHT22;9989;48.962;9.182;2024-03-23T10:05:01;13.10;99.90
19680;DHT22;9989;48.962;9.182;2024-03-23T10:07:26;13.50;99.90
19680;DHT22;9989;48.962;9.182;2024-03-23T10:09:55;13.90;99.90
19680;DHT22;9989;48.962;9.182;2024-03-23T10:12:22;14.10;99.90
19680;DHT22;9989;48.962;9.182;2024-03-23T10:14:47;14.20;99.90
19680;DHT22;9989;48.962;9.182;2024-03-23T10:17:18;14.00;99.90
19680;DHT22;9989;48.962;9.182;2024-03-23T10:19:48;13.70;99.90
19680;DHT22;9989;48.962;9.182;2024-03-23T10:22:22;13.40;99.90
19680;DHT22;9989;48.962;9.182;2024-03-23T10:24:48;13.00;99.90
19680;DHT22;9989;48.962;9.182;2024-03-23T10:27:19;12.70;99.90
19680;DHT22;9989;48.962;9.182;2024-03-23T10:29:48;12.50;99.90
19680;DHT22;9989;48.962;9.182;2024-03-23T10:32:16;12.30;99.90
19680;DHT22;9989;48.962;9.182;2024-03-23T10:34:42;12.20;99.90
19680;DHT22;9989;48.962;9.182;2024-03-23T10:37:08;12.10;99.90
19680;DHT22;9989;48.962;9.182;2024-03-23T10:39:35;12.00;99.90
19680;DHT22;9989;48.962;9.182;2024-03-23T10:42:05;12.00;99.90
19680;DHT22;9989;48.962;9.182;2024-03-23T10:44:32;11.80;99.90
19680;DHT22;9989;48.962;9.182;2024-03-23T10:46:58;11.70;99.90
19680;DHT22;9989;48.962;9.182;2024-03-23T10:49:32;11.50;99.90
19680;DHT22;9989;48.962;9.182;2024-03-23T10:52:02;11.30;99.90
19680;DHT22;9989;48.962;9.182;2024-03-23T10:54:30;11.20;99.90
19680;DHT22;9989;48.962;9.182;2024-03-23T10:57:11;11.10;99.90
19680;DHT22;9989;48.962;9.182;2024-03-23T10:59:39;10.80;99.90
19680;DHT22;9989;48.962;9.182;2024-03-23T11:02:05;10.50;99.90
19680;DHT22;9989;48.962;9.182;2024-03-23T11:07:00;10.00;99.90
19680;DHT22;9989;48.962;9.182;2024-03-23T11:09:46;9.70;99.90
19680;DHT22;9989;48.962;9.182;2024-03-23T11:15:12;9.50;99.90
19680;DHT22;9989;48.962;9.182;2024-03-23T11:17:38;9.50;99.90
19680;DHT22;9989;48.962;9.182;2024-03-23T11:20:04;9.60;99.90
19680;DHT22;9989;48.962;9.182;2024-03-23T11:22:46;9.90;99.90
19680;DHT22;9989;48.962;9.182;2024-03-23T11:25:23;10.20;99.90
19680;DHT22;9989;48.962;9.182;2024-03-23T11:27:52;10.30;99.90
19680;DHT22;9989;48.962;9.182;2024-03-23T11:30:19;10.40;99.90
19680;DHT22;9989;48.962;9.182;2024-03-23T11:32:46;10.80;99.90
19680;DHT22;9989;48.962;9.182;2024-03-23T11:35:34;11.40;99.90
19680;DHT22;9989;48.962;9.182;2024-03-23T11:38:10;11.80;99.90
19680;DHT22;9989;48.962;9.182;2024-03-23T11:40:37;11.90;99.90
19680;DHT22;9989;48.962;9.182;2024-03-23T11:43:04;12.20;99.90
19680;DHT22;9989;48.962;9.182;2024-03-23T11:45:46;12.10;99.90
19680;DHT22;9989;48.962;9.182;2024-03-23T11:48:17;12.40;99.90
19680;DHT22;9989;48.962;9.182;2024-03-23T11:50:54;12.10;99.90
19680;DHT22;9989;48.962;9.182;2024-03-23T11:53:22;12.50;99.90
19680;DHT22;9989;48.962;9.182;2024-03-23T11:55:55;13.00;99.90
19680;DHT22;9989;48.962;9.182;2024-03-23T11:58:25;13.20;99.90
19680;DHT22;9989;48.962;9.182;2024-03-23T12:03:17;13.80;99.90
19680;DHT22;9989;48.962;9.182;2024-03-23T12:05:48;13.50;99.90
19680;DHT22;9989;48.962;9.182;2024-03-23T12:08:23;13.30;99.90
19680;DHT22;9989;48.962;9.182;2024-03-23T12:10:53;13.50;99.90
19680;DHT22;9989;48.962;9.182;2024-03-23T12:13:29;14.40;98.20
19680;DHT22;9989;48.962;9.182;2024-03-23T12:15:54;14.30;96.70
19680;DHT22;9989;48.962;9.182;2024-03-23T12:18:23;13.90;97.20
19680;DHT22;9989;48.962;9.182;2024-03-23T12:20:50;13.80;97.70
19680;DHT22;9989;48.962;9.182;2024-03-23T12:23:15;14.40;97.90
19680;DHT22;9989;48.962;9.182;2024-03-23T12:25:41;15.30;96.20
19680;DHT22;9989;48.962;9.182;2024-03-23T12:28:07;16.80;92.00
19680;DHT22;9989;48.962;9.182;2024-03-23T12:30:38;17.70;83.50
19680;DHT22;9989;48.962;9.182;2024-03-23T12:33:04;17.80;79.70
19680;DHT22;9989;48.962;9.182;2024-03-23T12:35:30;17.50;76.50
19680;DHT22;9989;48.962;9.182;2024-03-23T12:37:55;16.90;78.50
19680;DHT22;9989;48.962;9.182;2024-03-23T12:40:21;16.70;78.80
19680;DHT22;9989;48.962;9.182;2024-03-23T12:42:47;17.20;78.30
19680;DHT22;9989;48.962;9.182;2024-03-23T12:45:12;18.10;74.50
19680;DHT22;9989;48.962;9.182;2024-03-23T12:47:38;19.50;72.10
19680;DHT22;9989;48.962;9.182;2024-03-23T12:50:04;20.90;64.60
19680;DHT22;9989;48.962;9.182;2024-03-23T12:52:31;21.80;60.70
19680;DHT22;9989;48.962;9.182;2024-03-23T12:54:56;22.80;57.70
19680;DHT22;9989;48.962;9.182;2024-03-23T12:57:23;22.60;56.70
19680;DHT22;9989;48.962;9.182;2024-03-23T12:59:50;21.70;56.10
19680;DHT22;9989;48.962;9.182;2024-03-23T13:02:17;21.00;57.40
19680;DHT22;9989;48.962;9.182;2024-03-23T13:04:44;20.80;59.00
19680;DHT22;9989;48.962;9.182;2024-03-23T13:07:10;21.20;59.00
19680;DHT22;9989;48.962;9.182;2024-03-23T13:09:35;21.50;57.40
19680;DHT22;9989;48.962;9.182;2024-03-23T13:12:01;21.50;57.50
19680;DHT22;9989;48.962;9.182;2024-03-23T13:14:26;21.50;57.00
19680;DHT22;9989;48.962;9.182;2024-03-23T13:16:52;20.20;57.70
19680;DHT22;9989;48.962;9.182;2024-03-23T13:19:18;19.50;59.80
19680;DHT22;9989;48.962;9.182;2024-03-23T13:21:44;19.60;58.40
19680;DHT22;9989;48.962;9.182;2024-03-23T13:24:09;19.10;58.70
19680;DHT22;9989;48.962;9.182;2024-03-23T13:26:35;17.90;61.50
19680;DHT22;9989;48.962;9.182;2024-03-23T13:29:00;17.60;61.00
19680;DHT22;9989;48.962;9.182;2024-03-23T13:31:26;17.80;61.80
19680;DHT22;9989;48.962;9.182;2024-03-23T13:33:51;17.90;63.10
19680;DHT22;9989;48.962;9.182;2024-03-23T13:36:17;18.80;62.00
19680;DHT22;9989;48.962;9.182;2024-03-23T13:38:42;19.90;59.40
19680;DHT22;9989;48.962;9.182;2024-03-23T13:41:08;21.10;56.20
19680;DHT22;9989;48.962;9.182;2024-03-23T13:43:37;21.90;55.30
19680;DHT22;9989;48.962;9.182;2024-03-23T13:46:03;21.70;54.40
19680;DHT22;9989;48.962;9.182;2024-03-23T13:48:28;20.60;54.70
19680;DHT22;9989;48.962;9.182;2024-03-23T13:51:01;18.40;58.50
19680;DHT22;9989;48.962;9.182;2024-03-23T13:53:27;16.70;67.00
19680;DHT22;9989;48.962;9.182;2024-03-23T13:55:52;15.30;76.40
19680;DHT22;9989;48.962;9.182;2024-03-23T13:58:18;14.20;81.60
19680;DHT22;9989;48.962;9.182;2024-03-23T14:00:44;13.20;86.80
19680;DHT22;9989;48.962;9.182;2024-03-23T14:03:13;12.60;90.30
19680;DHT22;9989;48.962;9.182;2024-03-23T14:05:42;12.10;92.20
19680;DHT22;9989;48.962;9.182;2024-03-23T14:08:08;11.60;93.20
19680;DHT22;9989;48.962;9.182;2024-03-23T14:10:35;11.30;94.70
19680;DHT22;9989;48.962;9.182;2024-03-23T14:13:03;11.00;95.30
19680;DHT22;9989;48.962;9.182;2024-03-23T14:15:30;10.40;96.10
19680;DHT22;9989;48.962;9.182;2024-03-23T14:17:58;10.30;97.10
19680;DHT22;9989;48.962;9.182;2024-03-23T14:20:24;10.40;97.50
19680;DHT22;9989;48.962;9.182;2024-03-23T14:22:50;10.40;97.80
19680;DHT22;9989;48.962;9.182;2024-03-23T14:25:16;10.40;98.90
19680;DHT22;9989;48.962;9.182;2024-03-23T14:27:46;10.50;99.10
19680;DHT22;9989;48.962;9.182;2024-03-23T14:30:12;10.50;98.20
19680;DHT22;9989;48.962;9.182;2024-03-23T14:32:38;10.50;99.10
19680;DHT22;9989;48.962;9.182;2024-03-23T14:35:04;11.10;98.50
19680;DHT22;9989;48.962;9.182;2024-03-23T14:37:30;12.70;96.70
19680;DHT22;9989;48.962;9.182;2024-03-23T14:39:57;14.90;92.90
19680;DHT22;9989;48.962;9.182;2024-03-23T14:42:22;16.40;90.10
19680;DHT22;9989;48.962;9.182;2024-03-23T14:44:49;18.20;81.60
19680;DHT22;9989;48.962;9.182;2024-03-23T14:47:15;19.10;75.50
19680;DHT22;9989;48.962;9.182;2024-03-23T14:49:41;20.50;68.10
19680;DHT22;9989;48.962;9.182;2024-03-23T14:52:06;21.00;63.50
19680;DHT22;9989;48.962;9.182;2024-03-23T14:54:34;20.40;62.80
19680;DHT22;9989;48.962;9.182;2024-03-23T14:57:00;19.90;64.60
19680;DHT22;9989;48.962;9.182;2024-03-23T14:59:26;20.00;61.90
19680;DHT22;9989;48.962;9.182;2024-03-23T15:01:51;19.20;60.90
19680;DHT22;9989;48.962;9.182;2024-03-23T15:04:17;17.60;65.00
19680;DHT22;9989;48.962;9.182;2024-03-23T15:06:42;17.30;66.70
19680;DHT22;9989;48.962;9.182;2024-03-23T15:09:08;16.90;68.50
19680;DHT22;9989;48.962;9.182;2024-03-23T15:11:37;16.80;69.10
19680;DHT22;9989;48.962;9.182;2024-03-23T15:14:02;16.20;68.90
19680;DHT22;9989;48.962;9.182;2024-03-23T15:16:28;15.70;68.20
19680;DHT22;9989;48.962;9.182;2024-03-23T15:18:53;15.10;70.50
19680;DHT22;9989;48.962;9.182;2024-03-23T15:21:19;14.90;72.00
19680;DHT22;9989;48.962;9.182;2024-03-23T15:23:47;15.50;72.50
19680;DHT22;9989;48.962;9.182;2024-03-23T15:26:13;16.80;69.50
19680;DHT22;9989;48.962;9.182;2024-03-23T15:28:39;18.20;65.00
19680;DHT22;9989;48.962;9.182;2024-03-23T15:31:23;19.20;61.80
19680;DHT22;9989;48.962;9.182;2024-03-23T15:33:49;20.10;59.40
19680;DHT22;9989;48.962;9.182;2024-03-23T15:36:14;20.80;58.00
19680;DHT22;9989;48.962;9.182;2024-03-23T15:38:40;20.50;57.30
19680;DHT22;9989;48.962;9.182;2024-03-23T15:41:05;20.20;58.60
19680;DHT22;9989;48.962;9.182;2024-03-23T15:43:31;20.00;59.00
19680;DHT22;9989;48.962;9.182;2024-03-23T15:46:02;20.10;58.40
19680;DHT22;9989;48.962;9.182;2024-03-23T15:48:28;20.20;58.90
19680;DHT22;9989;48.962;9.182;2024-03-23T15:50:58;19.70;59.70
19680;DHT22;9989;48.962;9.182;2024-03-23T15:53:24;19.50;60.30
19680;DHT22;9989;48.962;9.182;2024-03-23T15:56:00;19.50;61.20
19680;DHT22;9989;48.962;9.182;2024-03-23T15:58:27;19.70;60.90
19680;DHT22;9989;48.962;9.182;2024-03-23T16:01:04;19.10;62.30
19680;DHT22;9989;48.962;9.182;2024-03-23T16:03:30;17.10;66.40
19680;DHT22;9989;48.962;9.182;2024-03-23T16:05:58;16.20;71.30
19680;DHT22;9989;48.962;9.182;2024-03-23T16:08:24;16.70;71.10
19680;DHT22;9989;48.962;9.182;2024-03-23T16:10:51;16.60;71.00
19680;DHT22;9989;48.962;9.182;2024-03-23T16:13:17;16.10;72.40
19680;DHT22;9989;48.962;9.182;2024-03-23T16:15:54;15.70;74.30
19680;DHT22;9989;48.962;9.182;2024-03-23T16:18:19;14.80;76.10
19680;DHT22;9989;48.962;9.182;2024-03-23T16:21:01;14.30;78.30
19680;DHT22;9989;48.962;9.182;2024-03-23T16:23:27;13.80;79.80
19680;DHT22;9989;48.962;9.182;2024-03-23T16:25:54;13.20;80.80
19680;DHT22;9989;48.962;9.182;2024-03-23T16:28:26;12.70;83.30
19680;DHT22;9989;48.962;9.182;2024-03-23T16:30:57;12.30;85.50
19680;DHT22;9989;48.962;9.182;2024-03-23T16:33:23;11.90;87.70
19680;DHT22;9989;48.962;9.182;2024-03-23T16:36:03;11.50;90.00
19680;DHT22;9989;48.962;9.182;2024-03-23T16:38:33;11.20;90.70
19680;DHT22;9989;48.962;9.182;2024-03-23T16:43:30;10.80;91.90
19680;DHT22;9989;48.962;9.182;2024-03-23T16:46:01;10.60;92.20
19680;DHT22;9989;48.962;9.182;2024-03-23T16:48:29;10.40;92.30
19680;DHT22;9989;48.962;9.182;2024-03-23T16:50:59;10.30;92.50
19680;DHT22;9989;48.962;9.182;2024-03-23T16:53:25;10.10;93.00